createdAt,value
2023-01-05T00:01:54.501Z,4.23
2023-01-05T00:04:21.549Z,5.47
2023-01-05T00:06:48.509Z,4.40
2023-01-05T00:09:17.593Z,4.13
2023-01-05T00:12:03.211Z,4.43
2023-01-05T00:14:50.936Z,3.97
2023-01-05T00:17:39.205Z,4.03
2023-01-05T00:20:28.642Z,4.67
2023-01-05T00:22:55.439Z,4.10
2023-01-05T00:25:24.712Z,4.53
2023-01-05T00:27:53.783Z,3.93
2023-01-05T00:30:26.841Z,4.10
2023-01-05T00:32:53.904Z,3.83
2023-01-05T00:35:22.522Z,4.70
2023-01-05T00:37:50.422Z,4.07
2023-01-05T00:40:20.084Z,3.70
2023-01-05T00:42:47.605Z,4.27
2023-01-05T00:45:16.649Z,2.93
2023-01-05T00:47:44.059Z,3.30
2023-01-05T00:50:16.116Z,2.97
2023-01-05T00:52:44.016Z,2.47
2023-01-05T00:55:10.873Z,2.83
2023-01-05T00:57:37.685Z,2.37
2023-01-05T01:00:06.754Z,2.00
2023-01-05T01:02:33.585Z,2.53
2023-01-05T01:05:00.645Z,2.20
2023-01-05T01:07:27.865Z,2.33
2023-01-05T01:09:54.705Z,2.60
2023-01-05T01:12:21.480Z,1.97
2023-01-05T01:14:49.622Z,2.67
2023-01-05T01:17:17.693Z,2.90
2023-01-05T01:19:46.771Z,3.33
2023-01-05T01:22:14.105Z,3.13
2023-01-05T01:24:41.026Z,3.77
2023-01-05T01:27:08.447Z,3.60
2023-01-05T01:29:35.498Z,3.93
2023-01-05T01:32:02.378Z,4.23
2023-01-05T01:34:29.489Z,4.73
2023-01-05T01:36:56.976Z,4.57
2023-01-05T01:39:23.847Z,4.60
2023-01-05T01:41:50.842Z,4.13
2023-01-05T01:44:53.348Z,3.97
2023-01-05T01:47:29.070Z,3.50
2023-01-05T01:49:59.436Z,4.33
2023-01-05T01:52:29.463Z,3.97
2023-01-05T01:54:57.311Z,3.77
2023-01-05T01:57:26.969Z,4.07
2023-01-05T01:59:54.392Z,4.60
2023-01-05T02:02:23.244Z,3.40
2023-01-05T02:04:51.212Z,4.43
2023-01-05T02:07:18.141Z,4.47
2023-01-05T02:09:45.511Z,3.97
2023-01-05T02:12:35.318Z,4.03
2023-01-05T02:15:20.640Z,4.03
2023-01-05T02:17:50.538Z,4.63
2023-01-05T02:20:44.737Z,3.43
2023-01-05T02:23:42.721Z,4.70
2023-01-05T02:26:38.591Z,3.70
2023-01-05T02:29:26.294Z,4.47
2023-01-05T02:32:18.839Z,4.67
2023-01-05T02:35:20.942Z,4.90
2023-01-05T02:38:15.447Z,4.30
2023-01-05T02:40:53.949Z,4.33
2023-01-05T02:43:21.287Z,4.23
2023-01-05T02:45:48.976Z,4.07
2023-01-05T02:48:15.908Z,3.83
2023-01-05T02:50:53.223Z,3.70
2023-01-05T02:53:27.380Z,3.80
2023-01-05T02:56:07.266Z,3.33
2023-01-05T02:58:43.492Z,4.60
2023-01-05T03:01:22.041Z,3.43
2023-01-05T03:04:14.825Z,4.63
2023-01-05T03:06:50.830Z,4.57
2023-01-05T03:09:20.258Z,4.23
2023-01-05T03:12:17.250Z,4.40
2023-01-05T03:14:58.336Z,4.97
2023-01-05T03:17:41.413Z,4.53
2023-01-05T03:20:09.281Z,3.63
2023-01-05T03:22:56.411Z,5.40
2023-01-05T03:25:43.786Z,4.20
2023-01-05T03:29:04.121Z,5.53
2023-01-05T03:32:03.460Z,4.20
2023-01-05T03:35:10.970Z,4.10
2023-01-05T03:37:44.401Z,5.43
2023-01-05T03:40:29.026Z,4.53
2023-01-05T03:42:56.672Z,5.37
2023-01-05T03:45:26.531Z,4.23
2023-01-05T03:47:53.305Z,4.40
2023-01-05T03:50:20.452Z,4.60
2023-01-05T03:52:47.315Z,4.50
2023-01-05T03:55:14.028Z,4.17
2023-01-05T03:57:40.939Z,3.60
2023-01-05T04:00:08.554Z,4.03
2023-01-05T04:02:35.412Z,4.57
2023-01-05T04:05:02.335Z,3.87
2023-01-05T04:07:29.151Z,4.00
2023-01-05T04:09:55.958Z,4.47
2023-01-05T04:12:22.810Z,4.20
2023-01-05T04:14:49.781Z,5.63
2023-01-05T04:17:16.485Z,4.60
2023-01-05T04:19:43.306Z,4.00
2023-01-05T04:22:10.117Z,3.93
2023-01-05T04:24:36.928Z,4.40
2023-01-05T04:27:03.768Z,4.77
2023-01-05T04:29:30.614Z,5.27
2023-01-05T04:31:57.411Z,5.13
2023-01-05T04:34:24.250Z,4.03
2023-01-05T04:36:51.113Z,3.80
2023-01-05T04:39:18.210Z,4.63
2023-01-05T04:41:45.025Z,4.77
2023-01-05T04:44:11.850Z,4.83
2023-01-05T04:46:38.639Z,5.00
2023-01-05T04:49:05.488Z,3.83
2023-01-05T04:51:32.393Z,4.00
2023-01-05T04:53:59.157Z,4.00
2023-01-05T04:56:26.062Z,4.30
2023-01-05T04:58:52.923Z,6.13
2023-01-05T05:01:19.833Z,3.60
2023-01-05T05:03:46.933Z,5.20
2023-01-05T05:06:13.892Z,3.77
2023-01-05T05:08:40.729Z,3.97
2023-01-05T05:11:07.511Z,4.90
2023-01-05T05:13:34.469Z,4.30
2023-01-05T05:16:01.484Z,4.77
2023-01-05T05:18:28.617Z,5.20
2023-01-05T05:20:55.650Z,4.30
2023-01-05T05:23:22.558Z,4.23
2023-01-05T05:25:52.947Z,4.80
2023-01-05T05:28:20.635Z,4.40
2023-01-05T05:30:49.506Z,4.33
2023-01-05T05:33:16.352Z,4.37
2023-01-05T05:35:43.298Z,4.67
2023-01-05T05:38:10.099Z,4.70
2023-01-05T05:40:36.924Z,3.30
2023-01-05T05:43:03.859Z,4.50
2023-01-05T05:45:30.683Z,4.00
2023-01-05T05:47:58.139Z,4.43
2023-01-05T05:50:25.182Z,5.20
2023-01-05T05:52:51.988Z,4.73
2023-01-05T05:55:18.852Z,4.30
2023-01-05T05:57:45.777Z,4.70
2023-01-05T06:00:13.242Z,4.27
2023-01-05T06:02:40.271Z,4.23
2023-01-05T06:05:07.765Z,3.43
2023-01-05T06:07:34.645Z,3.70
2023-01-05T06:10:01.666Z,4.07
2023-01-05T06:12:28.512Z,3.90
2023-01-05T06:14:55.809Z,4.20
2023-01-05T06:17:22.629Z,3.93
2023-01-05T06:19:49.513Z,4.30
2023-01-05T06:22:16.324Z,4.13
2023-01-05T06:24:43.156Z,4.30
2023-01-05T06:27:10.866Z,4.27
2023-01-05T06:29:37.682Z,3.57
2023-01-05T06:32:04.884Z,3.87
2023-01-05T06:34:31.633Z,4.30
2023-01-05T06:37:02.248Z,4.13
2023-01-05T06:39:29.398Z,3.53
2023-01-05T06:41:56.415Z,4.07
2023-01-05T06:44:23.406Z,4.50
2023-01-05T06:46:50.499Z,4.83
2023-01-05T06:49:17.420Z,4.43
2023-01-05T06:51:44.255Z,4.63
2023-01-05T06:54:11.187Z,3.93
2023-01-05T06:56:38.030Z,3.93
2023-01-05T06:59:05.010Z,3.53
2023-01-05T07:01:31.943Z,4.87
2023-01-05T07:03:58.886Z,4.20
2023-01-05T07:06:25.830Z,4.77
2023-01-05T07:08:52.663Z,4.40
2023-01-05T07:11:19.504Z,4.63
2023-01-05T07:13:50.683Z,4.20
2023-01-05T07:16:18.553Z,3.43
2023-01-05T07:18:45.459Z,4.10
2023-01-05T07:21:12.602Z,3.83
2023-01-05T07:23:39.485Z,4.47
2023-01-05T07:26:08.244Z,4.23
2023-01-05T07:28:36.339Z,4.50
2023-01-05T07:31:03.755Z,4.40
2023-01-05T07:33:36.103Z,4.30
2023-01-05T07:36:06.443Z,4.20
2023-01-05T07:38:33.172Z,4.27
2023-01-05T07:41:01.514Z,4.23
2023-01-05T07:43:28.474Z,4.47
2023-01-05T07:46:00.309Z,5.07
2023-01-05T07:48:27.289Z,4.37
2023-01-05T07:51:04.640Z,4.17
2023-01-05T07:53:38.093Z,4.30
2023-01-05T07:56:11.853Z,4.63
2023-01-05T07:58:39.255Z,4.40
2023-01-05T08:01:11.665Z,4.00
2023-01-05T08:03:39.110Z,3.77
2023-01-05T08:06:10.900Z,4.60
2023-01-05T08:08:37.943Z,5.13
2023-01-05T08:11:09.851Z,4.97
2023-01-05T08:13:55.576Z,4.33
2023-01-05T08:16:22.971Z,4.93
2023-01-05T08:18:49.892Z,4.43
2023-01-05T08:21:17.141Z,4.97
2023-01-05T08:23:45.910Z,5.53
2023-01-05T08:26:18.812Z,4.70
2023-01-05T08:28:46.075Z,4.83
2023-01-05T08:31:37.474Z,4.73
2023-01-05T08:34:05.722Z,5.07
2023-01-05T08:36:33.378Z,4.57
2023-01-05T08:39:01.790Z,4.60
2023-01-05T08:41:32.043Z,5.30
2023-01-05T08:44:01.306Z,5.33
2023-01-05T08:46:35.122Z,4.83
2023-01-05T08:49:04.018Z,4.10
2023-01-05T08:51:32.396Z,4.53
2023-01-05T08:53:59.580Z,4.20
2023-01-05T08:56:27.049Z,5.13
2023-01-05T08:58:59.166Z,4.87
2023-01-05T09:01:26.676Z,3.90
2023-01-05T09:03:53.648Z,4.27
2023-01-05T09:06:20.610Z,4.50
2023-01-05T09:08:47.550Z,4.27
2023-01-05T09:11:20.723Z,4.70
2023-01-05T09:13:53.410Z,5.03
2023-01-05T09:19:10.356Z,4.90
2023-01-05T09:21:39.660Z,4.20
2023-01-05T09:24:12.243Z,4.53
2023-01-05T09:26:40.107Z,5.20
2023-01-05T09:29:07.030Z,4.87
2023-01-05T09:31:33.843Z,3.80
2023-01-05T09:34:00.837Z,5.23
2023-01-05T09:36:27.759Z,4.67
2023-01-05T09:38:57.580Z,4.53
2023-01-05T09:41:32.285Z,5.10
2023-01-05T09:44:05.864Z,4.20
2023-01-05T09:46:42.748Z,4.23
2023-01-05T09:49:15.113Z,3.67
2023-01-05T09:51:43.185Z,5.10
2023-01-05T09:54:18.736Z,4.23
2023-01-05T09:59:42.591Z,4.47
2023-01-05T10:02:21.198Z,4.50
2023-01-05T10:04:49.950Z,4.73
2023-01-05T10:07:53.604Z,4.73
2023-01-05T10:11:10.149Z,4.60
2023-01-05T10:13:42.848Z,4.37
2023-01-05T10:16:16.728Z,4.43
2023-01-05T10:18:43.720Z,4.40
2023-01-05T10:21:45.251Z,4.93
2023-01-05T10:24:33.835Z,5.27
2023-01-05T10:27:26.455Z,4.53
2023-01-05T10:30:10.916Z,4.37
2023-01-05T10:33:25.382Z,4.33
2023-01-05T10:36:12.062Z,4.50
2023-01-05T10:38:44.564Z,5.00
2023-01-05T10:41:22.055Z,5.03
2023-01-05T10:43:57.393Z,4.73
2023-01-05T10:46:39.939Z,3.33
2023-01-05T10:49:09.298Z,4.23
2023-01-05T10:51:37.118Z,5.00
2023-01-05T10:54:05.411Z,3.23
2023-01-05T10:56:33.479Z,4.07
2023-01-05T10:59:12.624Z,3.60
2023-01-05T11:01:44.191Z,3.67
2023-01-05T11:04:34.337Z,3.60
2023-01-05T11:07:07.122Z,4.43
2023-01-05T11:09:40.287Z,3.80
2023-01-05T11:12:19.208Z,3.63
2023-01-05T11:14:58.071Z,3.53
2023-01-05T11:17:28.161Z,3.67
2023-01-05T11:19:57.084Z,4.23
2023-01-05T11:22:48.490Z,3.20
2023-01-05T11:25:24.804Z,4.00
2023-01-05T11:28:17.928Z,3.73
2023-01-05T11:31:05.007Z,4.37
2023-01-05T11:33:36.108Z,4.40
2023-01-05T11:36:04.799Z,3.70
2023-01-05T11:38:32.272Z,4.10
2023-01-05T11:41:00.781Z,3.63
2023-01-05T11:43:30.411Z,4.17
2023-01-05T11:46:03.925Z,3.47
2023-01-05T11:48:34.064Z,3.83
2023-01-05T11:51:02.739Z,3.93
2023-01-05T11:53:38.388Z,3.60
2023-01-05T11:56:08.410Z,3.60
2023-01-05T11:58:45.681Z,3.30
2023-01-05T12:01:46.346Z,3.93
2023-01-05T12:04:28.531Z,3.40
2023-01-05T12:07:33.356Z,4.13
2023-01-05T12:10:09.522Z,3.33
2023-01-05T12:12:36.377Z,4.33
2023-01-05T12:15:37.109Z,4.87
2023-01-05T12:18:22.381Z,4.97
2023-01-05T12:21:25.087Z,4.67
2023-01-05T12:24:07.047Z,4.93
2023-01-05T12:26:55.463Z,4.80
2023-01-05T12:35:54.365Z,3.70
2023-01-05T12:38:37.732Z,5.07
2023-01-05T12:41:25.510Z,6.20
2023-01-05T12:44:11.191Z,4.80
2023-01-05T12:46:59.871Z,5.00
2023-01-05T12:49:44.232Z,3.90
2023-01-05T12:52:35.716Z,4.60
2023-01-05T12:55:07.416Z,5.23
2023-01-05T12:57:42.305Z,3.40
2023-01-05T13:00:12.779Z,4.13
2023-01-05T13:02:44.637Z,3.60
2023-01-05T13:05:29.308Z,3.60
2023-01-05T13:08:15.913Z,3.37
2023-01-05T13:10:49.756Z,4.50
2023-01-05T13:13:36.088Z,4.07
2023-01-05T13:16:13.522Z,4.10
2023-01-05T13:18:47.759Z,4.20
2023-01-05T13:21:15.709Z,4.67
2023-01-05T13:23:48.783Z,3.90
2023-01-05T13:26:22.653Z,3.97
2023-01-05T13:28:56.159Z,3.77
2023-01-05T13:31:41.272Z,3.80
2023-01-05T13:34:27.270Z,4.60
2023-01-05T13:37:04.016Z,4.20
2023-01-05T13:39:58.201Z,4.27
2023-01-05T13:42:48.303Z,4.97
2023-01-05T13:45:46.663Z,5.63
2023-01-05T13:48:45.170Z,4.60
2023-01-05T13:51:39.591Z,5.23
2023-01-05T13:54:17.265Z,4.90
2023-01-05T13:56:46.625Z,4.80
2023-01-05T13:59:35.197Z,4.23
2023-01-05T14:02:27.251Z,4.50
2023-01-05T14:04:54.449Z,4.43
2023-01-05T14:07:21.446Z,4.40
2023-01-05T14:09:49.719Z,4.10
2023-01-05T14:12:16.472Z,4.10
2023-01-05T14:15:00.295Z,4.53
2023-01-05T14:17:53.955Z,3.87
2023-01-05T14:20:37.774Z,4.17
2023-01-05T14:23:24.442Z,5.10
2023-01-05T14:26:06.810Z,4.17
2023-01-05T14:28:36.519Z,4.23
2023-01-05T14:31:15.600Z,3.83
2023-01-05T14:34:04.889Z,4.60
2023-01-05T14:36:37.226Z,4.70
2023-01-05T14:39:23.404Z,5.23
2023-01-05T14:42:02.002Z,5.13
2023-01-05T14:44:34.922Z,4.60
2023-01-05T14:47:02.945Z,5.80
2023-01-05T14:49:43.994Z,3.93
2023-01-05T14:52:17.650Z,5.17
2023-01-05T14:54:44.513Z,5.60
2023-01-05T14:57:22.060Z,4.53
2023-01-05T14:59:51.995Z,4.83
2023-01-05T15:02:24.384Z,5.10
2023-01-05T15:04:56.143Z,4.93
2023-01-05T15:07:48.425Z,12.13
2023-01-05T15:10:39.084Z,5.67
2023-01-05T15:13:11.460Z,5.07
2023-01-05T15:15:51.675Z,5.50
2023-01-05T15:18:37.121Z,5.63
2023-01-05T15:21:19.169Z,7.70
2023-01-05T15:24:14.468Z,5.13
2023-01-05T15:27:11.346Z,5.40
2023-01-05T15:29:46.424Z,5.73
2023-01-05T15:32:21.272Z,5.80
2023-01-05T15:34:57.262Z,5.80
2023-01-05T15:37:31.390Z,4.80
2023-01-05T15:40:04.066Z,5.77
2023-01-05T15:42:41.221Z,6.20
2023-01-05T15:45:43.193Z,4.90
2023-01-05T15:48:15.205Z,5.47
2023-01-05T15:50:48.304Z,5.23
2023-01-05T15:53:27.898Z,5.90
2023-01-05T15:55:55.803Z,5.47
2023-01-05T15:58:25.848Z,6.10
2023-01-05T16:01:10.554Z,5.33
2023-01-05T16:03:39.106Z,5.20
2023-01-05T16:06:20.290Z,5.63
2023-01-05T16:08:50.102Z,6.30
2023-01-05T16:11:26.377Z,5.60
2023-01-05T16:13:56.782Z,5.67
2023-01-05T16:19:29.313Z,6.50
2023-01-05T16:22:03.056Z,6.37
2023-01-05T16:24:39.386Z,5.83
2023-01-05T16:27:09.628Z,5.40
2023-01-05T16:29:45.856Z,5.97
2023-01-05T16:32:31.242Z,7.23
2023-01-05T16:35:34.161Z,6.10
2023-01-05T16:38:10.049Z,7.10
2023-01-05T16:40:46.121Z,6.33
2023-01-05T16:43:41.971Z,7.00
2023-01-05T16:46:20.462Z,7.20
2023-01-05T16:49:06.472Z,6.33
2023-01-05T16:51:33.540Z,6.57
2023-01-05T16:54:23.664Z,6.63
2023-01-05T16:57:02.570Z,6.93
2023-01-05T16:59:44.062Z,7.03
2023-01-05T17:02:44.342Z,6.00
2023-01-05T17:05:15.159Z,7.00
2023-01-05T17:07:43.493Z,6.57
2023-01-05T17:10:20.934Z,9.93
2023-01-05T17:12:59.211Z,7.60
2023-01-05T17:15:30.567Z,10.07
2023-01-05T17:17:58.278Z,7.67
2023-01-05T17:20:33.705Z,7.10
2023-01-05T17:23:00.843Z,6.83
2023-01-05T17:25:32.931Z,7.57
2023-01-05T17:27:59.838Z,7.93
2023-01-05T17:30:27.180Z,8.33
2023-01-05T17:32:54.259Z,8.17
2023-01-05T17:35:21.513Z,9.10
2023-01-05T17:37:48.407Z,9.23
2023-01-05T17:40:20.176Z,8.97
2023-01-05T17:42:47.258Z,8.83
2023-01-05T17:45:15.982Z,8.53
2023-01-05T17:47:43.767Z,9.50
2023-01-05T17:50:20.633Z,8.27
2023-01-05T17:52:47.718Z,8.10
2023-01-05T17:55:14.944Z,8.87
2023-01-05T17:57:42.439Z,7.97
2023-01-05T18:00:13.562Z,8.97
2023-01-05T18:02:40.505Z,8.37
2023-01-05T18:05:09.106Z,8.43
2023-01-05T18:07:37.231Z,10.03
2023-01-05T18:12:35.569Z,8.57
2023-01-05T18:15:02.698Z,8.97
2023-01-05T18:17:29.554Z,9.73
2023-01-05T18:19:56.601Z,9.43
2023-01-05T18:22:24.144Z,10.50
2023-01-05T18:24:50.996Z,8.80
2023-01-05T18:27:18.223Z,10.47
2023-01-05T18:29:45.529Z,11.23
2023-01-05T18:32:12.889Z,10.20
2023-01-05T18:34:39.720Z,9.23
2023-01-05T18:37:11.010Z,9.67
2023-01-05T18:39:47.708Z,8.77
2023-01-05T18:42:14.587Z,10.10
2023-01-05T18:44:41.583Z,9.97
2023-01-05T18:47:09.069Z,10.40
2023-01-05T18:49:36.069Z,9.43
2023-01-05T18:52:03.039Z,10.10
2023-01-05T18:54:30.397Z,10.07
2023-01-05T18:56:57.486Z,10.03
2023-01-05T18:59:25.687Z,9.27
2023-01-05T19:01:52.898Z,9.90
2023-01-05T19:04:20.207Z,10.80
2023-01-05T19:06:47.238Z,11.40
2023-01-05T19:09:16.098Z,11.23
2023-01-05T19:11:47.440Z,10.30
2023-01-05T19:14:15.575Z,11.43
2023-01-05T19:16:42.688Z,10.93
2023-01-05T19:19:12.472Z,10.97
2023-01-05T19:21:41.457Z,10.77
2023-01-05T19:24:20.249Z,11.20
2023-01-05T19:26:48.861Z,10.97
2023-01-05T19:29:16.839Z,10.80
2023-01-05T19:31:44.167Z,11.37
2023-01-05T19:34:12.874Z,11.10
2023-01-05T19:36:39.951Z,11.50
2023-01-05T19:39:10.849Z,11.10
2023-01-05T19:41:39.577Z,12.47
2023-01-05T19:44:07.078Z,12.47
2023-01-05T19:46:36.064Z,10.80
2023-01-05T19:49:03.732Z,11.40
2023-01-05T19:51:31.235Z,12.50
2023-01-05T19:54:00.769Z,11.70
2023-01-05T19:56:35.129Z,11.40
2023-01-05T19:59:05.315Z,11.27
2023-01-05T20:01:36.035Z,11.00
2023-01-05T20:04:04.081Z,11.73
2023-01-05T20:06:34.095Z,11.37
2023-01-05T20:09:04.926Z,11.20
2023-01-05T20:11:40.905Z,11.20
2023-01-05T20:14:24.758Z,11.10
2023-01-05T20:16:53.493Z,11.73
2023-01-05T20:19:22.145Z,12.07
2023-01-05T20:21:50.245Z,11.50
2023-01-05T20:24:22.419Z,11.70
2023-01-05T20:26:51.207Z,11.40
2023-01-05T20:29:21.229Z,11.87
2023-01-05T20:31:54.604Z,11.63
2023-01-05T20:34:23.784Z,11.77
2023-01-05T20:36:51.037Z,10.07
2023-01-05T20:39:22.299Z,11.07
2023-01-05T20:41:51.406Z,10.47
2023-01-05T20:44:21.186Z,10.17
2023-01-05T20:46:50.006Z,10.53
2023-01-05T20:49:17.973Z,11.37
2023-01-05T20:51:45.039Z,10.23
2023-01-05T20:54:12.985Z,9.97
2023-01-05T20:56:43.681Z,10.43
2023-01-05T20:59:19.785Z,10.07
2023-01-05T21:01:47.068Z,10.47
2023-01-05T21:04:14.483Z,10.70
2023-01-05T21:06:42.693Z,9.93
2023-01-05T21:09:10.280Z,10.20
2023-01-05T21:11:38.067Z,10.97
2023-01-05T21:14:06.888Z,9.77
2023-01-05T21:16:43.159Z,10.27
2023-01-05T21:19:17.931Z,11.07
2023-01-05T21:21:46.809Z,10.20
2023-01-05T21:24:15.164Z,11.00
2023-01-05T21:26:42.605Z,11.97
2023-01-05T21:29:11.353Z,11.77
2023-01-05T21:31:38.393Z,11.90
2023-01-05T21:34:05.511Z,11.40
2023-01-05T21:36:34.075Z,11.80
2023-01-05T21:41:51.066Z,11.63
2023-01-05T21:44:18.751Z,11.53
2023-01-05T21:46:46.345Z,12.07
2023-01-05T21:49:14.615Z,11.63
2023-01-05T21:52:00.579Z,12.40
2023-01-05T21:54:46.183Z,12.70
2023-01-05T21:57:13.883Z,11.93
2023-01-05T21:59:41.502Z,12.90
2023-01-05T22:02:08.568Z,12.83
2023-01-05T22:04:35.667Z,12.67
2023-01-05T22:07:07.186Z,12.87
2023-01-05T22:09:35.598Z,12.87
2023-01-05T22:12:03.728Z,13.03
2023-01-05T22:14:30.711Z,11.97
2023-01-05T22:16:57.578Z,12.37
2023-01-05T22:19:24.938Z,12.97
2023-01-05T22:21:51.799Z,12.10
2023-01-05T22:24:19.355Z,11.83
2023-01-05T22:26:46.347Z,12.27
2023-01-05T22:29:13.283Z,12.13
2023-01-05T22:31:40.098Z,11.27
2023-01-05T22:34:07.426Z,11.50
2023-01-05T22:36:34.480Z,11.20
2023-01-05T22:39:01.238Z,12.10
2023-01-05T22:41:29.966Z,11.63
2023-01-05T22:43:57.973Z,11.60
2023-01-05T22:46:27.044Z,10.47
2023-01-05T22:48:55.751Z,11.03
2023-01-05T22:51:33.907Z,11.10
2023-01-05T22:54:01.411Z,10.40
2023-01-05T22:56:29.559Z,10.30
2023-01-05T22:58:57.114Z,9.80
2023-01-05T23:01:33.150Z,11.33
2023-01-05T23:04:01.597Z,11.27
2023-01-05T23:06:28.814Z,10.60
2023-01-05T23:08:56.531Z,11.30
2023-01-05T23:11:29.095Z,11.60
2023-01-05T23:13:57.426Z,11.43
2023-01-05T23:16:25.363Z,11.93
2023-01-05T23:18:52.761Z,11.60
2023-01-05T23:21:21.019Z,12.00
2023-01-05T23:23:47.851Z,12.33
2023-01-05T23:26:15.910Z,12.10
2023-01-05T23:28:44.166Z,12.03
2023-01-05T23:31:14.638Z,12.53
2023-01-05T23:33:42.643Z,12.10
2023-01-05T23:36:10.780Z,12.70
2023-01-05T23:38:38.437Z,11.60
2023-01-05T23:41:08.098Z,11.77
2023-01-05T23:43:38.390Z,11.97
2023-01-05T23:46:11.518Z,12.30
2023-01-05T23:48:39.058Z,11.70
2023-01-05T23:51:11.429Z,12.20
2023-01-05T23:53:38.270Z,11.30
2023-01-05T23:56:10.344Z,11.57
2023-01-05T23:58:38.035Z,10.47
